This is the latest recevied weather packets stored in our database for station/object N5ATR. If no packets are shown the sender has not sent any weather packets the latest 1 day(s).
| Time | Temp. | Humidity | Pressure | Rain* | Wind** | Luminosity | Snow |
|---|---|---|---|---|---|---|---|
| 1778030164 | 10.56° C | 58% | 1010 hPa | 0 mm | 2.68 m/s, 271° | 45 W/m² | - |
| 1778029859 | 11.11° C | 56% | 1010.1 hPa | 0 mm | 4.47 m/s, 270° | 22 W/m² | - |
| 1778029554 | 11.11° C | 58% | 1009.6 hPa | 0 mm | 1.79 m/s, 274° | 21 W/m² | - |
| 1778029250 | 11.11° C | 58% | 1009.5 hPa | 0 mm | 1.79 m/s, 257° | 18 W/m² | - |
| 1778028947 | 11.11° C | 58% | 1009.5 hPa | 0 mm | 1.34 m/s, 265° | 28 W/m² | - |
| 1778028643 | 11.11° C | 58% | 1010 hPa | 0 mm | 1.79 m/s, 280° | 44 W/m² | - |
| 1778028340 | 11.11° C | 57% | 1009.6 hPa | 0 mm | 2.68 m/s, 295° | 29 W/m² | - |
| 1778028047 | 11.67° C | 56% | 1009.6 hPa | 0 mm | 2.68 m/s, 228° | 41 W/m² | - |
| 1778027734 | 11.67° C | 56% | 1009.7 hPa | 0 mm | 2.24 m/s, 230° | 37 W/m² | - |
| 1778027430 | 11.67° C | 55% | 1009.3 hPa | 0 mm | 2.68 m/s, 255° | 35 W/m² | - |
| 1778027126 | 12.22° C | 54% | 1009.6 hPa | 0 mm | 1.34 m/s, 290° | 65 W/m² | - |
| 1778026822 | 11.67° C | 55% | 1009.6 hPa | 0 mm | 1.79 m/s, 256° | 69 W/m² | - |
| 1778026518 | 12.22° C | 53% | 1009.6 hPa | 0 mm | 2.68 m/s, 254° | 48 W/m² | - |
| 1778026216 | 13.33° C | 50% | 1009.7 hPa | 0 mm | 1.79 m/s, 241° | 111 W/m² | - |
| 1778025913 | 13.33° C | 48% | 1009.3 hPa | 0 mm | 4.02 m/s, 315° | 170 W/m² | - |
| 1778025610 | 13.89° C | 48% | 1009.3 hPa | 0 mm | 4.02 m/s, 259° | 228 W/m² | - |
| 1778025308 | 13.33° C | 50% | 1009.3 hPa | 0 mm | 3.13 m/s, 287° | 281 W/m² | - |
| 1778025004 | 13.89° C | 49% | 1009.6 hPa | 0 mm | 2.68 m/s, 262° | 253 W/m² | - |
| 1778024702 | 13.89° C | 48% | 1009.5 hPa | 0 mm | 4.02 m/s, 310° | 254 W/m² | - |
| 1778024398 | 14.44° C | 46% | 1009.5 hPa | 0 mm | 2.68 m/s, 261° | 269 W/m² | - |
| 1778024096 | 14.44° C | 47% | 1009.3 hPa | 0 mm | 3.58 m/s, 230° | 281 W/m² | - |
| 1778023793 | 14.44° C | 47% | 1009.5 hPa | 0 mm | 2.68 m/s, 262° | 298 W/m² | - |
| 1778023491 | 13.89° C | 50% | 1009.6 hPa | 0 mm | 2.68 m/s, 241° | 308 W/m² | - |
| 1778023188 | 12.78° C | 57% | 1009.3 hPa | 0 mm | 2.68 m/s, 229° | 330 W/m² | - |
| 1778022885 | 13.33° C | 56% | 1009.3 hPa | 0 mm | 2.24 m/s, 295° | 345 W/m² | - |
* Rain latest hour (hover to see other rain measurements)
** Current wind speed in m/s (hover to see current wind gust speed)